FQLC

Lichinga Airport

Lichinga, Mozambique
METAR FQLC 241300Z 06005KT 9999 SCT016 23/12 Q1022 RMK TX25,0 TM13,0
Observed Flight Rules
May-24 @ 13:00 UTC (51 minutes ago) Visual Flight Rules
Wind Visibility Clouds
60° at 5 knots 10,000+ meters
  • Scattered at 1,600' AGL
Temperatures Readings
Current 23°C / 73°F
Dewpoint 12°C / 54°F
Humidity 50%
Altimeter 30.18" Hg
Pressure 1022 hPa
Elevation 1365
METAR FQLC 241300Z 06005KT 9999 SCT016 23/12 Q1022 RMK TX25,0 TM13,0
Observed Flight Rules
May-24 @ 13:00 UTC
(51 minutes ago)
VFR
Wind Visibility
60° at 5 knots 10,000+ meters
Clouds
  • Scattered at 1,600' AGL
Temperature Dewpoint
23°C / 73°F 12°C / 54°F
Humidity Altimeter Pressure
50% 30.18" Hg 1022 hPa